»·PEaware :: DAL250 KMSP-KATL

DAL250 :: KMSP-KATL

FLIGHT INFORMATION

Flight Status: Arrived
Operator:
Delta Air Lines
More flights by this operator :: More flights under this callsign
Pilot: Andrew J. (13363)
Aircraft: Unknown
(A359)
More flights by this aircraft type
Origin: KMSP Minneapolis-St Paul Intl
United States
Destination: KATL Hartsfield-Jackson Atlanta
United States
More flights between these airports :: More routes between these airports
Route: ZMBRO7 ODI J30 BRIBE PLESS J45 TINGS BNA MTHEW CHPPR1
File this flight plan on PilotEdge
Remarks:
Altitude:
(Current/Filed)
39,000ft
Speed:
(Current/Filed)
489kts
Departed: 20-Sep-20 09:38 AM
Arrived: 20-Sep-20 11:33 AM
Distance/Time
Traveled:
787nm/1:55
Distance/Time
To Go:
Arrived

Flight Plot

Page will automatically refresh every two minutes.

Flight plan parsing failed; only flown route is shown


Map Options




Map Legend


Flown Route
Filed Route
Departure Airport
Arrival Airport
Navaid (VOR, NDB)
Fix

Horizontal Profiles

Position Reports

Time Latitude Longitude Heading Altitude Ground
Speed
20-Sep-20 08:59 44.879131 -93.207060 45 821ft 0kts
20-Sep-20 09:00 44.879131 -93.207060 45 821ft 0kts
20-Sep-20 09:01 44.879131 -93.207060 45 821ft 0kts
20-Sep-20 09:02 44.879131 -93.207060 45 821ft 0kts
20-Sep-20 09:03 44.879131 -93.207060 45 821ft 0kts
20-Sep-20 09:04 44.879131 -93.207060 45 821ft 0kts
20-Sep-20 09:05 44.879131 -93.207060 45 821ft 0kts
20-Sep-20 09:06 44.879131 -93.207060 45 821ft 0kts
20-Sep-20 09:06 44.879131 -93.207060 45 821ft 0kts
20-Sep-20 09:08 44.879131 -93.207060 45 821ft 0kts
20-Sep-20 09:09 44.879131 -93.207060 45 821ft 0kts
20-Sep-20 09:09 44.879131 -93.207060 45 821ft 0kts
20-Sep-20 09:10 44.879131 -93.207060 45 821ft 0kts
20-Sep-20 09:12 44.879131 -93.207060 45 821ft 0kts
20-Sep-20 09:12 44.879131 -93.207061 45 821ft 0kts
20-Sep-20 09:13 44.878890 -93.207495 57 822ft 2kts
20-Sep-20 09:15 44.878376 -93.207933 316 821ft 2kts
20-Sep-20 09:15 44.878170 -93.207449 302 820ft 0kts
20-Sep-20 09:16 44.878170 -93.207450 302 820ft 0kts
20-Sep-20 09:17 44.878170 -93.207450 302 820ft 0kts
20-Sep-20 09:18 44.878170 -93.207450 302 820ft 0kts
20-Sep-20 09:19 44.878170 -93.207450 302 820ft 0kts
20-Sep-20 09:20 44.878218 -93.207558 302 820ft 1kts
20-Sep-20 09:21 44.878767 -93.209694 290 823ft 10kts
20-Sep-20 09:22 44.879983 -93.213164 300 827ft 10kts
20-Sep-20 09:23 44.881484 -93.216641 300 831ft 11kts
20-Sep-20 09:24 44.883136 -93.220471 301 835ft 10kts
20-Sep-20 09:25 44.884697 -93.224075 302 837ft 12kts
20-Sep-20 09:26 44.886433 -93.228070 301 843ft 10kts
20-Sep-20 09:27 44.888202 -93.230073 300 847ft 7kts
20-Sep-20 09:28 44.888872 -93.231635 301 850ft 2kts
20-Sep-20 09:29 44.888998 -93.231926 301 850ft 0kts
20-Sep-20 09:30 44.888998 -93.231926 301 850ft 0kts
20-Sep-20 09:31 44.888998 -93.231926 301 850ft 0kts
20-Sep-20 09:32 44.888998 -93.231926 301 850ft 0kts
20-Sep-20 09:33 44.888998 -93.231926 301 850ft 0kts
20-Sep-20 09:34 44.889050 -93.232046 301 850ft 1kts
20-Sep-20 09:35 44.888692 -93.233189 209 850ft 0kts
20-Sep-20 09:36 44.887681 -93.233748 144 848ft 7kts
20-Sep-20 09:37 44.878617 -93.212677 123 869ft 164kts
20-Sep-20 09:38 44.866648 -93.152270 106 3463ft 180kts
20-Sep-20 09:39 44.831938 -93.096492 149 5607ft 231kts
20-Sep-20 09:40 44.774180 -93.039065 149 8548ft 268kts
20-Sep-20 09:41 44.710980 -92.976005 149 11293ft 300kts
20-Sep-20 09:42 44.645738 -92.911015 148 13826ft 322kts
20-Sep-20 09:43 44.569842 -92.835562 147 15848ft 361kts
20-Sep-20 09:44 44.481569 -92.746896 142 17015ft 420kts
20-Sep-20 09:45 44.410945 -92.611532 122 19444ft 443kts
20-Sep-20 09:46 44.346980 -92.460972 122 21769ft 458kts
20-Sep-20 09:47 44.280104 -92.305791 123 23951ft 473kts
20-Sep-20 09:48 44.211150 -92.146341 123 25949ft 487kts
20-Sep-20 09:49 44.140120 -91.983404 123 27768ft 500kts
20-Sep-20 09:50 44.067265 -91.817279 123 29877ft 502kts
20-Sep-20 09:51 43.994738 -91.652936 123 32113ft 497kts
20-Sep-20 09:52 43.920788 -91.491965 127 34072ft 492kts
20-Sep-20 09:53 43.830359 -91.352443 136 35789ft 486kts
20-Sep-20 09:54 43.735626 -91.219941 136 37229ft 484kts
20-Sep-20 09:55 43.640790 -91.087756 136 38228ft 488kts
20-Sep-20 09:56 43.544444 -90.954170 136 39007ft 496kts
20-Sep-20 09:57 43.446707 -90.819168 136 39423ft 498kts
20-Sep-20 09:58 43.348719 -90.684542 136 39429ft 498kts
20-Sep-20 09:59 43.250805 -90.550664 136 39429ft 498kts
20-Sep-20 10:00 43.152546 -90.416990 136 39430ft 498kts
20-Sep-20 10:01 43.054379 -90.283808 136 39436ft 498kts
20-Sep-20 10:02 42.956183 -90.151353 136 39445ft 496kts
20-Sep-20 10:03 42.857563 -90.021719 142 39445ft 492kts
20-Sep-20 10:04 42.738911 -89.933221 164 39446ft 486kts
20-Sep-20 10:05 42.606878 -89.899945 173 39447ft 483kts
20-Sep-20 10:06 42.474302 -89.872659 173 39421ft 482kts
20-Sep-20 10:07 42.341908 -89.845082 173 39328ft 483kts
20-Sep-20 10:08 42.209609 -89.817591 173 39334ft 483kts
20-Sep-20 10:09 42.076536 -89.790041 173 39382ft 483kts
20-Sep-20 10:10 41.944631 -89.762793 174 39427ft 482kts
20-Sep-20 10:11 41.812058 -89.735713 174 39459ft 481kts
20-Sep-20 10:12 41.679738 -89.708705 174 39466ft 482kts
20-Sep-20 10:13 41.547720 -89.681835 174 39466ft 481kts
20-Sep-20 10:14 41.415418 -89.655021 174 39466ft 481kts
20-Sep-20 10:15 41.283661 -89.628427 174 39464ft 481kts
20-Sep-20 10:16 41.151196 -89.601795 174 39460ft 481kts
20-Sep-20 10:17 41.018894 -89.575287 174 39457ft 484kts
20-Sep-20 10:18 40.885659 -89.548736 174 39456ft 487kts
20-Sep-20 10:19 40.751932 -89.522266 174 39457ft 487kts
20-Sep-20 10:20 40.618122 -89.495811 174 39457ft 487kts
20-Sep-20 10:21 40.484597 -89.469500 174 39456ft 487kts
20-Sep-20 10:22 40.351048 -89.443295 174 39448ft 487kts
20-Sep-20 10:23 40.217353 -89.417169 174 39440ft 487kts
20-Sep-20 10:24 40.083422 -89.391102 174 39440ft 487kts
20-Sep-20 10:25 39.949720 -89.365185 174 39441ft 487kts
20-Sep-20 10:26 39.815685 -89.339145 175 39441ft 486kts
20-Sep-20 10:27 39.681985 -89.313108 175 39441ft 486kts
20-Sep-20 10:28 39.548652 -89.287522 175 39440ft 486kts
20-Sep-20 10:29 39.415245 -89.262058 175 39440ft 486kts
20-Sep-20 10:30 39.281708 -89.236677 175 39440ft 486kts
20-Sep-20 10:31 39.147776 -89.211320 175 39439ft 486kts
20-Sep-20 10:32 39.014028 -89.186099 175 39435ft 486kts
20-Sep-20 10:33 38.880280 -89.160991 175 39425ft 490kts
20-Sep-20 10:34 38.745219 -89.135758 175 39420ft 490kts
20-Sep-20 10:35 38.610433 -89.110629 175 39416ft 490kts
20-Sep-20 10:36 38.481512 -89.057333 146 39413ft 502kts
20-Sep-20 10:37 38.373691 -88.943631 142 39412ft 504kts
20-Sep-20 10:38 38.265530 -88.829490 142 39417ft 506kts
20-Sep-20 10:39 38.157088 -88.716253 142 39418ft 506kts
20-Sep-20 10:40 38.048181 -88.603039 142 39411ft 506kts
20-Sep-20 10:41 37.939253 -88.490242 142 39404ft 506kts
20-Sep-20 10:42 37.830215 -88.378133 142 39403ft 506kts
20-Sep-20 10:43 37.721309 -88.266062 143 39403ft 506kts
20-Sep-20 10:44 37.612102 -88.154120 143 39404ft 506kts
20-Sep-20 10:45 37.503044 -88.042931 143 39409ft 506kts
20-Sep-20 10:46 37.393741 -87.931939 143 39410ft 506kts
20-Sep-20 10:47 37.284238 -87.821172 143 39410ft 506kts
20-Sep-20 10:48 37.174568 -87.710660 143 39399ft 506kts
20-Sep-20 10:50 37.065230 -87.600881 143 39374ft 505kts
20-Sep-20 10:51 36.955684 -87.491307 143 39367ft 502kts
20-Sep-20 10:52 36.846406 -87.382747 144 39366ft 502kts
20-Sep-20 10:53 36.737467 -87.274535 144 39367ft 502kts
20-Sep-20 10:54 36.628706 -87.166817 144 39372ft 501kts
20-Sep-20 10:55 36.519212 -87.058928 144 39372ft 503kts
20-Sep-20 10:56 36.409091 -86.950854 145 39358ft 506kts
20-Sep-20 10:57 36.298328 -86.842583 145 39343ft 509kts
20-Sep-20 10:58 36.186921 -86.734119 145 39347ft 509kts
20-Sep-20 10:59 36.070649 -86.637376 154 39358ft 503kts
20-Sep-20 11:00 35.949061 -86.551425 154 39359ft 504kts
20-Sep-20 11:01 35.827183 -86.465521 154 39348ft 504kts
20-Sep-20 11:02 35.705538 -86.379949 154 39341ft 504kts
20-Sep-20 11:03 35.584688 -86.294746 154 39342ft 504kts
20-Sep-20 11:04 35.463004 -86.209441 153 39339ft 504kts
20-Sep-20 11:05 35.348992 -86.108082 145 39291ft 510kts
20-Sep-20 11:05 35.257406 -86.019000 145 38461ft 500kts
20-Sep-20 11:07 35.130176 -85.897235 145 36180ft 500kts
20-Sep-20 11:08 35.020204 -85.792444 145 33123ft 508kts
20-Sep-20 11:08 34.926315 -85.703337 144 30132ft 520kts
20-Sep-20 11:09 34.815835 -85.598388 146 26788ft 477kts
20-Sep-20 11:11 34.699236 -85.489441 144 24060ft 439kts
20-Sep-20 11:11 34.619506 -85.413882 144 23236ft 434kts
20-Sep-20 11:12 34.525313 -85.325146 143 21985ft 426kts
20-Sep-20 11:14 34.418378 -85.224618 142 19432ft 408kts
20-Sep-20 11:14 34.344413 -85.155686 139 17521ft 408kts
20-Sep-20 11:15 34.254619 -85.071651 140 14900ft 405kts
20-Sep-20 11:16 34.168306 -84.991474 141 13368ft 370kts
20-Sep-20 11:17 34.095118 -84.922639 141 12580ft 316kts
20-Sep-20 11:18 34.027687 -84.858954 144 11423ft 299kts
20-Sep-20 11:19 33.948998 -84.848639 183 10453ft 285kts
20-Sep-20 11:20 33.871049 -84.854447 182 9443ft 278kts
20-Sep-20 11:21 33.799142 -84.873745 197 8958ft 246kts
20-Sep-20 11:22 33.734159 -84.894581 175 7998ft 238kts
20-Sep-20 11:23 33.671263 -84.875981 163 7406ft 225kts
20-Sep-20 11:24 33.630342 -84.832209 88 6662ft 221kts
20-Sep-20 11:25 33.631275 -84.758670 88 6021ft 213kts
20-Sep-20 11:26 33.640468 -84.688959 74 5595ft 210kts
20-Sep-20 11:27 33.649300 -84.624366 87 4262ft 184kts
20-Sep-20 11:28 33.649678 -84.566954 87 3108ft 157kts
20-Sep-20 11:29 33.649616 -84.521516 87 2391ft 133kts
20-Sep-20 11:30 33.649593 -84.477020 86 1703ft 132kts
20-Sep-20 11:31 33.649496 -84.433600 86 1040ft 117kts
20-Sep-20 11:32 33.649192 -84.417292 109 1018ft 27kts
20-Sep-20 11:33 33.647694 -84.415802 206 1018ft 19kts
20-Sep-20 11:34 33.645403 -84.417533 270 1015ft 15kts
20-Sep-20 11:35 33.645408 -84.422184 269 1021ft 13kts
20-Sep-20 11:36 33.645407 -84.426363 270 1029ft 16kts
20-Sep-20 11:37 33.641512 -84.428050 179 1031ft 19kts
20-Sep-20 11:38 33.636549 -84.426869 90 1031ft 19kts
20-Sep-20 11:39 33.638357 -84.424284 299 1031ft 1kts
20-Sep-20 11:40 33.638279 -84.425121 270 1031ft 0kts
20-Sep-20 11:41 33.638279 -84.425121 270 1031ft 0kts
20-Sep-20 11:42 33.638279 -84.425121 270 1031ft 0kts
20-Sep-20 11:43 33.638279 -84.425121 270 1031ft 0kts
20-Sep-20 11:44 33.638279 -84.425121 270 1031ft 0kts
20-Sep-20 11:45 33.638279 -84.425121 270 1031ft 0kts
20-Sep-20 11:46 33.638279 -84.425121 270 1031ft 0kts
20-Sep-20 11:47 33.638279 -84.425121 270 1031ft 0kts

Navigation Log

Ident Type
Flight plan parsing failed, navigation log unavailable